Time;durP1;ratioP1;P1;durP2;ratioP2;P2;SDS_P1;SDS_P2;PMS_P1;PMS_P2;Temp;Humidity;BMP_temperature;BMP_pressure;BME280_temperature;BME280_humidity;BME280_pressure;Samples;Min_cycle;Max_cycle;Signal;HPM_P1;HPM_P2
2022/09/26 00:01:29;;;;;;;;;;;;;;;;;;5037213;28;19942;-79
2022/09/26 00:03:55;;;;;;;;;;;;;;;;;;5055045;28;19924;-80
2022/09/26 00:06:21;;;;;;;;;;;;;;;;;;5054615;28;19945;-80
2022/09/26 00:08:49;;;;;;;;;;;;;;;;;;5054767;28;19916;-80
2022/09/26 00:11:16;;;;;;;;;;;;;;;;;;5037173;28;19924;-80
2022/09/26 00:13:41;;;;;;;;;;;;;;;;;;5052170;28;19917;-80
2022/09/26 00:16:07;;;;;;;;;;;;;;;;;;5036508;28;20003;-80
2022/09/26 00:18:32;;;;;;;;;;;;;;;;;;5054576;28;19917;-80
2022/09/26 00:21:07;;;;;;;;;;;;;;;;;;5055342;28;20050;-80
2022/09/26 00:23:33;;;;;;;;;;;;;;;;;;5054760;28;20353;-80
2022/09/26 00:26:01;;;;;;;;;;;;;;;;;;5054454;28;19917;-80
2022/09/26 00:28:27;;;;;;;;;;;;;;;;;;5054273;28;20265;-80
2022/09/26 00:30:52;;;;;;;;;;;;;;;;;;5036414;28;20326;-79
2022/09/26 00:33:17;;;;;;;;;;;;;;;;;;5054344;28;20015;-80
2022/09/26 00:35:50;;;;;;;;;;;;;;;;;;5054420;28;19917;-79
2022/09/26 00:38:15;;;;;;;;;;;;;;;;;;5054404;28;20015;-79
2022/09/26 00:40:40;;;;;;;;;;;;;;;;;;5054161;28;20342;-79
2022/09/26 00:43:23;;;;;;;;;;;;;;;;;;5054187;28;20221;-80
2022/09/26 00:45:48;;;;;;;;;;;;;;;;;;5053841;28;19917;-80
2022/09/26 00:48:14;;;;;;;;;;;;;;;;;;5054213;28;19916;-80
2022/09/26 00:50:39;;;;;;;;;;;;;;;;;;5036276;28;19916;-79
2022/09/26 00:53:08;;;;;;;;;;;;;;;;;;5054039;28;20410;-79
2022/09/26 00:55:35;;;;;;;;;;;;;;;;;;5036350;28;19970;-79
2022/09/26 00:58:23;;;;;;;;;;;;;;;;;;5036355;28;20406;-79
2022/09/26 01:00:49;;;;;;;;;;;;;;;;;;5043101;28;19916;-80
2022/09/26 01:03:15;;;;;;;;;;;;;;;;;;5036152;28;19966;-79
2022/09/26 01:05:40;;;;;;;;;;;;;;;;;;5053938;28;20322;-79
2022/09/26 01:08:06;;;;;;;;;;;;;;;;;;5036250;28;19947;-79
2022/09/26 01:10:31;;;;;;;;;;;;;;;;;;5053878;28;19920;-80
2022/09/26 01:12:56;;;;;;;;;;;;;;;;;;5054518;28;19923;-79
2022/09/26 01:15:22;;;;;;;;;;;;;;;;;;5053668;28;19921;-79
2022/09/26 01:17:50;;;;;;;;;;;;;;;;;;5036492;28;20357;-79
2022/09/26 01:20:24;;;;;;;;;;;;;;;;;;5036071;28;20250;-79
2022/09/26 01:23:08;;;;;;;;;;;;;;;;;;5019515;28;19924;-79
2022/09/26 01:25:33;;;;;;;;;;;;;;;;;;5053927;28;19917;-79
2022/09/26 01:28:02;;;;;;;;;;;;;;;;;;5054104;28;19917;-79
2022/09/26 01:30:28;;;;;;;;;;;;;;;;;;5053745;28;19916;-79
2022/09/26 01:33:05;;;;;;;;;;;;;;;;;;5036071;28;19917;-80
2022/09/26 01:35:43;;;;;;;;;;;;;;;;;;5036095;28;19919;-79
2022/09/26 01:38:22;;;;;;;;;;;;;;;;;;5053648;28;19923;-79
2022/09/26 01:41:11;;;;;;;;;;;;;;;;;;5037770;28;19912;-80
2022/09/26 01:43:37;;;;;;;;;;;;;;;;;;5019838;28;19917;-80
2022/09/26 01:46:08;;;;;;;;;;;;;;;;;;5057671;28;19982;-79
2022/09/26 01:48:34;;;;;;;;;;;;;;;;;;5039591;28;19916;-80
2022/09/26 01:51:06;;;;;;;;;;;;;;;;;;5057544;28;20223;-79
2022/09/26 01:53:34;;;;;;;;;;;;;;;;;;5040047;28;19936;-80
2022/09/26 01:56:06;;;;;;;;;;;;;;;;;;5057194;28;19956;-80
2022/09/26 01:58:44;;;;;;;;;;;;;;;;;;5039150;28;19916;-79
2022/09/26 02:01:10;;;;;;;;;;;;;;;;;;5039325;28;20271;-80
2022/09/26 02:03:36;;;;;;;;;;;;;;;;;;5039172;28;19917;-80
2022/09/26 02:06:07;;;;;;;;;;;;;;;;;;5039540;28;19917;-80
2022/09/26 02:08:37;;;;;;;;;;;;;;;;;;5039296;28;20339;-80
2022/09/26 02:11:07;;;;;;;;;;;;;;;;;;5039239;28;20016;-81
2022/09/26 02:13:37;;;;;;;;;;;;;;;;;;5038841;28;20066;-80
2022/09/26 02:16:09;;;;;;;;;;;;;;;;;;5039314;28;20282;-80
2022/09/26 02:18:37;;;;;;;;;;;;;;;;;;5056784;28;19917;-80
2022/09/26 02:21:22;;;;;;;;;;;;;;;;;;5038873;28;19916;-79
2022/09/26 02:23:48;;;;;;;;;;;;;;;;;;5056575;28;19923;-80
2022/09/26 02:26:13;;;;;;;;;;;;;;;;;;5038816;28;19916;-81
2022/09/26 02:28:39;;;;;;;;;;;;;;;;;;5038529;28;20262;-80
2022/09/26 02:31:04;;;;;;;;;;;;;;;;;;5038689;28;19938;-81
2022/09/26 02:33:30;;;;;;;;;;;;;;;;;;5038860;28;19931;-81
2022/09/26 02:35:56;;;;;;;;;;;;;;;;;;5056434;28;19924;-81
2022/09/26 02:38:22;;;;;;;;;;;;;;;;;;5056424;28;20017;-80
2022/09/26 02:41:03;;;;;;;;;;;;;;;;;;5055787;28;19971;-79
2022/09/26 02:43:36;;;;;;;;;;;;;;;;;;5056339;28;19916;-80
2022/09/26 02:46:14;;;;;;;;;;;;;;;;;;5038380;28;19923;-79
2022/09/26 02:48:42;;;;;;;;;;;;;;;;;;5056635;28;19924;-80
2022/09/26 02:51:13;;;;;;;;;;;;;;;;;;5056110;28;20008;-80
2022/09/26 02:53:57;;;;;;;;;;;;;;;;;;5038415;28;19916;-80
2022/09/26 02:56:46;;;;;;;;;;;;;;;;;;5055833;28;20337;-80
2022/09/26 02:59:12;;;;;;;;;;;;;;;;;;5038176;28;19924;-81
2022/09/26 03:01:39;;;;;;;;;;;;;;;;;;5056040;28;19917;-80
2022/09/26 03:04:07;;;;;;;;;;;;;;;;;;5055997;28;20345;-80
2022/09/26 03:06:33;;;;;;;;;;;;;;;;;;5055934;28;19917;-80
2022/09/26 03:08:59;;;;;;;;;;;;;;;;;;5021851;28;19920;-80
2022/09/26 03:11:24;;;;;;;;;;;;;;;;;;5055590;28;19917;-80
2022/09/26 03:13:51;;;;;;;;;;;;;;;;;;5038034;28;20023;-80
2022/09/26 03:16:16;;;;;;;;;;;;;;;;;;5055701;28;19916;-80
2022/09/26 03:18:49;;;;;;;;;;;;;;;;;;5037855;28;19924;-80
2022/09/26 03:21:14;;;;;;;;;;;;;;;;;;5055546;28;19975;-80
2022/09/26 03:23:39;;;;;;;;;;;;;;;;;;5055817;28;20404;-80
2022/09/26 03:26:09;;;;;;;;;;;;;;;;;;5037733;28;19927;-80
2022/09/26 03:28:34;;;;;;;;;;;;;;;;;;5056043;28;19928;-80
2022/09/26 03:30:59;;;;;;;;;;;;;;;;;;5037650;28;20542;-80
2022/09/26 03:33:25;;;;;;;;;;;;;;;;;;5055478;28;19959;-80
2022/09/26 03:35:50;;;;;;;;;;;;;;;;;;5037533;28;19912;-80
2022/09/26 03:38:15;;;;;;;;;;;;;;;;;;5055229;28;20254;-81
2022/09/26 03:40:41;;;;;;;;;;;;;;;;;;5054902;28;19912;-80
2022/09/26 03:43:06;;;;;;;;;;;;;;;;;;5055433;28;19916;-80
2022/09/26 03:45:35;;;;;;;;;;;;;;;;;;5037680;28;20270;-81
2022/09/26 03:48:00;;;;;;;;;;;;;;;;;;5055246;28;19920;-80
2022/09/26 03:50:25;;;;;;;;;;;;;;;;;;5055119;28;19983;-81
2022/09/26 03:52:51;;;;;;;;;;;;;;;;;;5055086;28;20231;-81
2022/09/26 03:55:16;;;;;;;;;;;;;;;;;;5055019;28;20389;-80
2022/09/26 03:57:45;;;;;;;;;;;;;;;;;;5055017;28;20335;-80
2022/09/26 04:00:10;;;;;;;;;;;;;;;;;;5037298;28;19917;-80
2022/09/26 04:02:36;;;;;;;;;;;;;;;;;;5036884;28;19918;-79
2022/09/26 04:05:01;;;;;;;;;;;;;;;;;;5055584;28;19917;-86
2022/09/26 04:07:27;;;;;;;;;;;;;;;;;;5039867;28;20331;-82
2022/09/26 04:09:52;;;;;;;;;;;;;;;;;;5054460;28;19917;-83
2022/09/26 04:12:18;;;;;;;;;;;;;;;;;;5054674;28;19923;-83
2022/09/26 04:14:44;;;;;;;;;;;;;;;;;;5036833;28;19921;-83
2022/09/26 04:17:09;;;;;;;;;;;;;;;;;;5036344;28;19990;-83
2022/09/26 04:19:35;;;;;;;;;;;;;;;;;;5037478;28;19917;-83
2022/09/26 04:22:00;;;;;;;;;;;;;;;;;;5036844;28;20396;-83
2022/09/26 04:24:25;;;;;;;;;;;;;;;;;;5054145;28;19917;-83
2022/09/26 04:26:51;;;;;;;;;;;;;;;;;;5036969;28;19974;-83
2022/09/26 04:29:16;;;;;;;;;;;;;;;;;;5054807;28;19917;-83
2022/09/26 04:31:42;;;;;;;;;;;;;;;;;;5036933;28;20312;-83
2022/09/26 04:34:07;;;;;;;;;;;;;;;;;;5054645;28;19923;-84
2022/09/26 04:36:33;;;;;;;;;;;;;;;;;;5055687;28;19924;-82
2022/09/26 04:38:59;;;;;;;;;;;;;;;;;;5057140;28;20015;-83
2022/09/26 04:41:25;;;;;;;;;;;;;;;;;;5051454;28;19922;-82
2022/09/26 04:43:50;;;;;;;;;;;;;;;;;;5022228;28;19983;-83
2022/09/26 04:46:16;;;;;;;;;;;;;;;;;;5042240;28;20023;-82
2022/09/26 04:48:42;;;;;;;;;;;;;;;;;;5053566;28;19920;-82
2022/09/26 04:51:11;;;;;;;;;;;;;;;;;;5048178;28;19924;-82
2022/09/26 04:53:40;;;;;;;;;;;;;;;;;;5036451;28;20357;-82
2022/09/26 04:56:08;;;;;;;;;;;;;;;;;;5052068;28;19924;-82
2022/09/26 04:58:34;;;;;;;;;;;;;;;;;;5047982;28;19928;-82
2022/09/26 05:01:15;;;;;;;;;;;;;;;;;;5033680;28;19925;-80
2022/09/26 05:03:46;;;;;;;;;;;;;;;;;;5036464;28;19927;-83
2022/09/26 05:06:12;;;;;;;;;;;;;;;;;;5033016;28;19920;-82
2022/09/26 05:08:39;;;;;;;;;;;;;;;;;;5038009;28;19928;-81
2022/09/26 05:11:05;;;;;;;;;;;;;;;;;;5032831;28;19921;-81
2022/09/26 05:13:38;;;;;;;;;;;;;;;;;;5036679;28;20258;-82
2022/09/26 05:16:09;;;;;;;;;;;;;;;;;;5051593;28;19976;-84
2022/09/26 05:18:35;;;;;;;;;;;;;;;;;;5027370;28;19943;-81
2022/09/26 05:21:03;;;;;;;;;;;;;;;;;;5062407;28;20590;-81
2022/09/26 05:26:22;;;;;;;;;;;;;;;;;;5057568;28;20236;-83
2022/09/26 05:28:52;;;;;;;;;;;;;;;;;;5054405;28;19971;-84
2022/09/26 05:31:18;;;;;;;;;;;;;;;;;;5035030;28;19936;-86
2022/09/26 05:33:50;;;;;;;;;;;;;;;;;;5064231;28;19924;-87
2022/09/26 05:36:16;;;;;;;;;;;;;;;;;;5056120;28;19982;-83
2022/09/26 05:38:47;;;;;;;;;;;;;;;;;;5061002;28;19977;-84
2022/09/26 05:41:13;;;;;;;;;;;;;;;;;;5039302;28;19925;-86
2022/09/26 05:43:38;;;;;;;;;;;;;;;;;;5044627;28;19920;-87
2022/09/26 05:46:05;;;;;;;;;;;;;;;;;;5043866;28;20319;-89
2022/09/26 05:48:34;;;;;;;;;;;;;;;;;;5046315;28;19932;-83
2022/09/26 05:51:03;;;;;;;;;;;;;;;;;;5032187;28;19920;-82
2022/09/26 05:53:39;;;;;;;;;;;;;;;;;;5042310;28;19976;-84
2022/09/26 05:56:05;;;;;;;;;;;;;;;;;;5101479;22;19946;-83
2022/09/26 05:58:32;;;;;;;;;;;;;;;;;;5084805;28;19928;-81
2022/09/26 06:01:06;;;;;;;;;;;;;;;;;;5080808;28;19987;-80
2022/09/26 06:06:35;;;;;;;;;;;;;;;;;;5063009;22;19939;-80
2022/09/26 06:09:02;;;;;;;;;;;;;;;;;;5037798;28;20338;-83
2022/09/26 06:11:29;;;;;;;;;;;;;;;;;;5031201;28;20398;-79
2022/09/26 06:13:55;;;;;;;;;;;;;;;;;;5047323;28;20015;-79
2022/09/26 06:16:20;;;;;;;;;;;;;;;;;;5045225;28;20040;-80
2022/09/26 06:18:46;;;;;;;;;;;;;;;;;;5047886;28;20460;-80
2022/09/26 06:21:12;;;;;;;;;;;;;;;;;;5034470;28;19927;-78
2022/09/26 06:23:37;;;;;;;;;;;;;;;;;;5036877;28;19956;-78
2022/09/26 06:26:03;;;;;;;;;;;;;;;;;;5052704;28;19956;-81
2022/09/26 06:28:29;;;;;;;;;;;;;;;;;;5051854;28;19917;-80
2022/09/26 06:30:55;;;;;;;;;;;;;;;;;;5047608;28;19988;-79
2022/09/26 06:33:20;;;;;;;;;;;;;;;;;;5050924;28;20034;-79
2022/09/26 06:35:45;;;;;;;;;;;;;;;;;;5046774;28;19921;-77
2022/09/26 06:38:11;;;;;;;;;;;;;;;;;;5054214;28;19956;-79
2022/09/26 06:40:37;;;;;;;;;;;;;;;;;;5036243;28;20062;-79
2022/09/26 06:43:03;;;;;;;;;;;;;;;;;;5050054;28;19920;-79
2022/09/26 06:45:29;;;;;;;;;;;;;;;;;;5052615;28;19928;-78
2022/09/26 06:47:54;;;;;;;;;;;;;;;;;;5054045;28;19963;-79
2022/09/26 06:50:20;;;;;;;;;;;;;;;;;;5043625;28;20007;-80
2022/09/26 06:52:46;;;;;;;;;;;;;;;;;;5055936;28;19921;-82
2022/09/26 06:55:11;;;;;;;;;;;;;;;;;;5021333;28;19921;-78
2022/09/26 06:57:41;;;;;;;;;;;;;;;;;;5041893;28;19925;-79
2022/09/26 07:00:12;;;;;;;;;;;;;;;;;;5052881;28;19917;-78
2022/09/26 07:02:37;;;;;;;;;;;;;;;;;;5036433;28;19944;-77
2022/09/26 07:05:04;;;;;;;;;;;;;;;;;;5059456;28;20315;-79
2022/09/26 07:07:29;;;;;;;;;;;;;;;;;;5072927;28;20333;-77
2022/09/26 07:09:55;;;;;;;;;;;;;;;;;;5075401;28;19952;-78
2022/09/26 07:12:21;;;;;;;;;;;;;;;;;;5074061;28;19916;-78
2022/09/26 07:14:46;;;;;;;;;;;;;;;;;;5074002;28;19974;-78
2022/09/26 07:17:14;;;;;;;;;;;;;;;;;;5073465;28;19983;-80
2022/09/26 07:19:40;;;;;;;;;;;;;;;;;;5073797;28;20319;-80
2022/09/26 07:22:06;;;;;;;;;;;;;;;;;;5073421;28;19970;-80
2022/09/26 07:24:31;;;;;;;;;;;;;;;;;;5073538;28;19923;-79
2022/09/26 07:26:58;;;;;;;;;;;;;;;;;;5063334;28;19944;-79
2022/09/26 07:29:23;;;;;;;;;;;;;;;;;;5056394;28;20301;-81
2022/09/26 07:31:48;;;;;;;;;;;;;;;;;;5053568;28;19920;-79
2022/09/26 07:34:14;;;;;;;;;;;;;;;;;;5050929;28;19921;-80
2022/09/26 07:36:40;;;;;;;;;;;;;;;;;;5046738;28;20719;-79
2022/09/26 07:39:05;;;;;;;;;;;;;;;;;;5049511;28;19921;-81
2022/09/26 07:41:30;;;;;;;;;;;;;;;;;;5047367;28;20231;-83
2022/09/26 07:43:56;;;;;;;;;;;;;;;;;;5049288;28;19982;-80
2022/09/26 07:51:55;;;;;;;;;;;;;;;;;;5029552;28;20119;-80
2022/09/26 07:54:23;;;;;;;;;;;;;;;;;;5044661;28;19940;-81
2022/09/26 07:56:57;;;;;;;;;;;;;;;;;;5051168;28;19982;-80
2022/09/26 07:59:22;;;;;;;;;;;;;;;;;;5047142;28;19940;-80
2022/09/26 08:01:48;;;;;;;;;;;;;;;;;;5033183;28;20305;-82
2022/09/26 08:04:13;;;;;;;;;;;;;;;;;;5046747;28;19920;-81
2022/09/26 08:06:41;;;;;;;;;;;;;;;;;;5056688;28;20568;-80
2022/09/26 08:09:07;;;;;;;;;;;;;;;;;;5051777;28;20014;-80
2022/09/26 08:11:32;;;;;;;;;;;;;;;;;;5050961;28;20031;-79
2022/09/26 08:13:59;;;;;;;;;;;;;;;;;;5050792;28;19920;-78
2022/09/26 08:16:24;;;;;;;;;;;;;;;;;;5062473;28;19925;-82
2022/09/26 08:18:50;;;;;;;;;;;;;;;;;;5047176;28;19924;-81
2022/09/26 08:21:15;;;;;;;;;;;;;;;;;;5044221;28;19939;-80
2022/09/26 08:23:40;;;;;;;;;;;;;;;;;;5046512;28;20019;-80
2022/09/26 08:26:06;;;;;;;;;;;;;;;;;;5044970;28;20029;-82
2022/09/26 08:28:32;;;;;;;;;;;;;;;;;;5049309;28;20015;-80
2022/09/26 08:31:01;;;;;;;;;;;;;;;;;;5049860;28;19927;-80
2022/09/26 08:33:27;;;;;;;;;;;;;;;;;;5045005;28;20004;-80
2022/09/26 08:35:52;;;;;;;;;;;;;;;;;;5050539;28;20023;-79
2022/09/26 08:38:17;;;;;;;;;;;;;;;;;;5050791;28;20259;-81
2022/09/26 08:40:48;;;;;;;;;;;;;;;;;;5048678;28;19917;-79
2022/09/26 08:43:13;;;;;;;;;;;;;;;;;;5052824;28;19931;-80
2022/09/26 08:48:33;;;;;;;;;;;;;;;;;;5051069;28;19927;-78
2022/09/26 08:51:06;;;;;;;;;;;;;;;;;;5040529;28;19921;-78
2022/09/26 08:53:34;;;;;;;;;;;;;;;;;;5052731;28;20128;-81
2022/09/26 08:56:14;;;;;;;;;;;;;;;;;;5040864;28;19917;-81
2022/09/26 08:58:40;;;;;;;;;;;;;;;;;;5047984;28;19927;-80
2022/09/26 09:01:10;;;;;;;;;;;;;;;;;;5049665;28;20008;-80
2022/09/26 09:03:52;;;;;;;;;;;;;;;;;;5048765;28;19916;-81
2022/09/26 09:06:17;;;;;;;;;;;;;;;;;;5048502;28;19967;-81
2022/09/26 09:08:43;;;;;;;;;;;;;;;;;;5017021;28;19960;-81
2022/09/26 09:11:15;;;;;;;;;;;;;;;;;;5030372;28;19975;-81
2022/09/26 09:13:59;;;;;;;;;;;;;;;;;;5031266;28;19952;-80
2022/09/26 09:16:27;;;;;;;;;;;;;;;;;;5049799;28;19921;-82
2022/09/26 09:19:04;;;;;;;;;;;;;;;;;;5047399;28;20400;-79
2022/09/26 09:21:48;;;;;;;;;;;;;;;;;;5046651;28;20400;-78
2022/09/26 09:24:17;;;;;;;;;;;;;;;;;;5048371;28;19920;-78
2022/09/26 09:26:46;;;;;;;;;;;;;;;;;;5050971;28;19913;-80
2022/09/26 09:29:19;;;;;;;;;;;;;;;;;;5031760;28;20015;-81
2022/09/26 09:31:44;;;;;;;;;;;;;;;;;;5052297;28;19920;-81
2022/09/26 09:34:23;;;;;;;;;;;;;;;;;;5035065;28;19936;-79
2022/09/26 09:36:50;;;;;;;;;;;;;;;;;;5052188;28;19923;-79
2022/09/26 09:39:37;;;;;;;;;;;;;;;;;;5032317;28;20406;-79
2022/09/26 09:42:14;;;;;;;;;;;;;;;;;;5052634;28;19916;-78
2022/09/26 09:44:46;;;;;;;;;;;;;;;;;;5031299;28;20603;-79
2022/09/26 09:47:13;;;;;;;;;;;;;;;;;;5047077;28;20006;-81
2022/09/26 09:49:39;;;;;;;;;;;;;;;;;;5045091;28;19920;-77
2022/09/26 09:52:23;;;;;;;;;;;;;;;;;;5045731;28;19921;-79
2022/09/26 09:57:23;;;;;;;;;;;;;;;;;;5127312;22;19952;-78
2022/09/26 09:59:51;;;;;;;;;;;;;;;;;;5071312;28;20013;-79
2022/09/26 10:02:36;;;;;;;;;;;;;;;;;;5075079;28;19920;-78
2022/09/26 10:05:16;;;;;;;;;;;;;;;;;;5076921;28;19920;-77
2022/09/26 10:07:43;;;;;;;;;;;;;;;;;;5074706;28;19925;-77
2022/09/26 10:10:13;;;;;;;;;;;;;;;;;;5072442;28;19920;-77
2022/09/26 10:12:40;;;;;;;;;;;;;;;;;;5051438;28;19955;-77
2022/09/26 10:15:10;;;;;;;;;;;;;;;;;;5061635;28;19935;-77
2022/09/26 10:17:35;;;;;;;;;;;;;;;;;;5042885;28;20036;-76
2022/09/26 10:20:01;;;;;;;;;;;;;;;;;;5056231;28;20053;-76
2022/09/26 10:22:31;;;;;;;;;;;;;;;;;;5060372;28;19974;-78
2022/09/26 10:25:01;;;;;;;;;;;;;;;;;;5082511;28;19920;-78
2022/09/26 10:27:34;;;;;;;;;;;;;;;;;;5060899;28;19931;-78
2022/09/26 10:30:00;;;;;;;;;;;;;;;;;;5073464;28;19978;-78
2022/09/26 10:32:25;;;;;;;;;;;;;;;;;;5075096;28;19920;-78
2022/09/26 10:35:09;;;;;;;;;;;;;;;;;;5058496;28;20024;-79
2022/09/26 10:37:38;;;;;;;;;;;;;;;;;;5068193;28;19925;-76
2022/09/26 10:42:55;;;;;;;;;;;;;;;;;;5051600;28;19927;-77
2022/09/26 10:45:26;;;;;;;;;;;;;;;;;;5056092;28;19921;-77
2022/09/26 10:47:52;;;;;;;;;;;;;;;;;;5053327;28;19928;-80
2022/09/26 10:50:22;;;;;;;;;;;;;;;;;;5066228;28;20256;-77
2022/09/26 10:52:48;;;;;;;;;;;;;;;;;;5052874;28;20302;-77
2022/09/26 10:55:18;;;;;;;;;;;;;;;;;;5053460;28;19920;-77
2022/09/26 10:57:44;;;;;;;;;;;;;;;;;;5067390;28;19920;-76
2022/09/26 11:00:39;;;;;;;;;;;;;;;;;;5034474;28;20382;-77
2022/09/26 11:03:12;;;;;;;;;;;;;;;;;;5034298;28;19927;-78
2022/09/26 11:05:56;;;;;;;;;;;;;;;;;;5056515;28;19928;-76
2022/09/26 11:08:27;;;;;;;;;;;;;;;;;;5067308;28;19939;-77
2022/09/26 11:10:53;;;;;;;;;;;;;;;;;;5067510;28;20015;-78
2022/09/26 11:13:18;;;;;;;;;;;;;;;;;;5068352;28;20035;-77
2022/09/26 11:15:59;;;;;;;;;;;;;;;;;;5068195;28;19916;-78
2022/09/26 11:18:41;;;;;;;;;;;;;;;;;;5065709;28;19983;-75
2022/09/26 11:21:26;;;;;;;;;;;;;;;;;;5070780;28;19916;-78
2022/09/26 11:24:01;;;;;;;;;;;;;;;;;;5043141;28;19978;-79
2022/09/26 11:26:32;;;;;;;;;;;;;;;;;;5046656;28;20042;-76
2022/09/26 11:29:18;;;;;;;;;;;;;;;;;;5070280;28;20070;-76
2022/09/26 11:31:43;;;;;;;;;;;;;;;;;;5057721;28;19920;-79
2022/09/26 11:34:13;;;;;;;;;;;;;;;;;;5066204;28;20309;-79
2022/09/26 11:36:52;;;;;;;;;;;;;;;;;;5066775;28;19916;-79
2022/09/26 11:39:17;;;;;;;;;;;;;;;;;;5057742;28;19920;-78
2022/09/26 11:41:54;;;;;;;;;;;;;;;;;;5050824;28;20555;-79
2022/09/26 11:44:19;;;;;;;;;;;;;;;;;;5033464;28;19917;-80
2022/09/26 11:46:46;;;;;;;;;;;;;;;;;;5050525;28;20058;-78
2022/09/26 11:49:17;;;;;;;;;;;;;;;;;;5033576;28;19992;-78
2022/09/26 11:51:52;;;;;;;;;;;;;;;;;;5051468;28;19917;-78
2022/09/26 11:54:22;;;;;;;;;;;;;;;;;;5049814;28;19916;-78
2022/09/26 11:57:07;;;;;;;;;;;;;;;;;;5049768;28;19919;-78
2022/09/26 11:59:41;;;;;;;;;;;;;;;;;;5049268;28;19978;-78
2022/09/26 12:02:14;;;;;;;;;;;;;;;;;;5049754;28;20361;-78
2022/09/26 12:04:41;;;;;;;;;;;;;;;;;;5051227;28;19975;-77
2022/09/26 12:07:15;;;;;;;;;;;;;;;;;;5050977;28;19917;-78
2022/09/26 12:09:59;;;;;;;;;;;;;;;;;;5052593;28;20008;-78
2022/09/26 12:12:27;;;;;;;;;;;;;;;;;;5054123;28;19917;-78
2022/09/26 12:14:56;;;;;;;;;;;;;;;;;;5054919;28;20015;-78
2022/09/26 12:17:34;;;;;;;;;;;;;;;;;;5054987;28;19923;-78
2022/09/26 12:20:18;;;;;;;;;;;;;;;;;;5054192;28;20020;-77
2022/09/26 12:22:52;;;;;;;;;;;;;;;;;;5054862;28;19924;-77
2022/09/26 12:25:34;;;;;;;;;;;;;;;;;;5053262;28;19917;-77
2022/09/26 12:28:10;;;;;;;;;;;;;;;;;;5054641;28;19985;-77
2022/09/26 12:30:45;;;;;;;;;;;;;;;;;;5053594;28;19916;-78
2022/09/26 12:33:20;;;;;;;;;;;;;;;;;;5054685;28;20069;-77
2022/09/26 12:36:07;;;;;;;;;;;;;;;;;;5054773;28;19924;-79
2022/09/26 12:38:36;;;;;;;;;;;;;;;;;;5053501;28;19917;-76
2022/09/26 12:41:21;;;;;;;;;;;;;;;;;;5055071;28;19924;-77
2022/09/26 12:43:54;;;;;;;;;;;;;;;;;;5054772;28;19917;-77
2022/09/26 12:46:29;;;;;;;;;;;;;;;;;;5053943;28;19917;-77
2022/09/26 12:49:00;;;;;;;;;;;;;;;;;;5053310;28;19975;-76
2022/09/26 12:51:32;;;;;;;;;;;;;;;;;;5053164;28;19917;-77
2022/09/26 12:54:04;;;;;;;;;;;;;;;;;;5054369;28;20259;-77
2022/09/26 12:56:32;;;;;;;;;;;;;;;;;;5054195;28;19917;-77
2022/09/26 12:59:00;;;;;;;;;;;;;;;;;;5054745;28;19920;-77
2022/09/26 13:01:42;;;;;;;;;;;;;;;;;;5054592;28;20330;-77
2022/09/26 13:04:10;;;;;;;;;;;;;;;;;;5054115;28;19952;-77
2022/09/26 13:06:55;;;;;;;;;;;;;;;;;;5053109;28;19917;-80
2022/09/26 13:09:26;;;;;;;;;;;;;;;;;;5052945;28;19928;-77
2022/09/26 13:12:04;;;;;;;;;;;;;;;;;;5053854;28;19921;-78
2022/09/26 13:14:37;;;;;;;;;;;;;;;;;;5054161;28;19936;-78
2022/09/26 13:17:21;;;;;;;;;;;;;;;;;;5036496;28;19963;-78
2022/09/26 13:19:52;;;;;;;;;;;;;;;;;;5036565;28;19992;-78
2022/09/26 13:22:26;;;;;;;;;;;;;;;;;;5019660;28;20362;-77
2022/09/26 13:24:54;;;;;;;;;;;;;;;;;;5054243;28;19917;-77
2022/09/26 13:27:21;;;;;;;;;;;;;;;;;;5019841;28;19924;-78
2022/09/26 13:29:49;;;;;;;;;;;;;;;;;;5036266;28;19974;-77
2022/09/26 13:32:21;;;;;;;;;;;;;;;;;;5036125;28;19916;-78
2022/09/26 13:34:52;;;;;;;;;;;;;;;;;;5036811;28;20007;-77
2022/09/26 13:37:27;;;;;;;;;;;;;;;;;;5038615;28;20345;-77
2022/09/26 13:40:13;;;;;;;;;;;;;;;;;;5057708;28;19927;-78
2022/09/26 13:43:06;;;;;;;;;;;;;;;;;;5057395;28;19991;-77
2022/09/26 13:45:40;;;;;;;;;;;;;;;;;;5034383;28;20261;-78
2022/09/26 13:48:07;;;;;;;;;;;;;;;;;;5057530;28;20000;-78
2022/09/26 13:50:46;;;;;;;;;;;;;;;;;;5039781;28;19917;-78
2022/09/26 13:53:11;;;;;;;;;;;;;;;;;;5039824;28;19917;-78
2022/09/26 13:55:37;;;;;;;;;;;;;;;;;;5057688;28;19966;-78
2022/09/26 13:58:02;;;;;;;;;;;;;;;;;;5045667;28;20269;-77
2022/09/26 14:00:29;;;;;;;;;;;;;;;;;;5056504;28;19916;-78
2022/09/26 14:03:09;;;;;;;;;;;;;;;;;;5057346;28;20012;-78
2022/09/26 14:05:41;;;;;;;;;;;;;;;;;;5057379;28;19923;-78
2022/09/26 14:11:17;;;;;;;;;;;;;;;;;;5056940;28;19981;-78
2022/09/26 14:13:43;;;;;;;;;;;;;;;;;;5057097;28;20315;-78
2022/09/26 14:16:17;;;;;;;;;;;;;;;;;;5057327;28;20035;-78
2022/09/26 14:18:46;;;;;;;;;;;;;;;;;;5057031;28;20361;-77
2022/09/26 14:21:30;;;;;;;;;;;;;;;;;;5055759;28;19917;-77
2022/09/26 14:24:14;;;;;;;;;;;;;;;;;;5056907;28;19917;-77
2022/09/26 14:26:40;;;;;;;;;;;;;;;;;;5057170;28;19927;-78
2022/09/26 14:29:24;;;;;;;;;;;;;;;;;;5055698;28;20513;-78
2022/09/26 14:32:09;;;;;;;;;;;;;;;;;;5038974;28;19917;-79
2022/09/26 14:34:47;;;;;;;;;;;;;;;;;;5056733;28;20318;-77
2022/09/26 14:37:38;;;;;;;;;;;;;;;;;;5056732;28;20334;-78
2022/09/26 14:40:10;;;;;;;;;;;;;;;;;;5055090;28;19916;-78
2022/09/26 14:42:35;;;;;;;;;;;;;;;;;;5055265;28;19917;-78
2022/09/26 14:45:01;;;;;;;;;;;;;;;;;;5056427;28;19920;-79
2022/09/26 14:47:29;;;;;;;;;;;;;;;;;;5056216;28;20329;-77
2022/09/26 14:49:59;;;;;;;;;;;;;;;;;;5055449;28;19919;-78
2022/09/26 14:52:24;;;;;;;;;;;;;;;;;;5038412;28;20357;-78
2022/09/26 14:54:49;;;;;;;;;;;;;;;;;;5055711;28;19920;-78
2022/09/26 14:57:19;;;;;;;;;;;;;;;;;;5054889;28;20349;-77
2022/09/26 14:59:45;;;;;;;;;;;;;;;;;;5055706;28;20332;-78
2022/09/26 15:02:13;;;;;;;;;;;;;;;;;;5055787;28;19971;-77
2022/09/26 15:04:42;;;;;;;;;;;;;;;;;;5055590;28;19916;-78
2022/09/26 15:07:26;;;;;;;;;;;;;;;;;;5037514;28;20249;-77
2022/09/26 15:09:58;;;;;;;;;;;;;;;;;;5021240;28;19913;-77
2022/09/26 15:12:38;;;;;;;;;;;;;;;;;;5055815;28;20253;-77
2022/09/26 15:15:06;;;;;;;;;;;;;;;;;;5054568;28;19971;-76
2022/09/26 15:17:32;;;;;;;;;;;;;;;;;;5055873;28;20246;-77
2022/09/26 15:19:58;;;;;;;;;;;;;;;;;;5038089;28;19921;-78
2022/09/26 15:22:24;;;;;;;;;;;;;;;;;;5037687;28;20367;-75
2022/09/26 15:24:53;;;;;;;;;;;;;;;;;;5037869;28;20015;-78
2022/09/26 15:27:26;;;;;;;;;;;;;;;;;;5055756;28;19917;-77
2022/09/26 15:29:54;;;;;;;;;;;;;;;;;;5055374;28;19916;-78
2022/09/26 15:32:28;;;;;;;;;;;;;;;;;;5037888;28;19917;-78
2022/09/26 15:34:54;;;;;;;;;;;;;;;;;;5055332;28;19924;-78
2022/09/26 15:37:22;;;;;;;;;;;;;;;;;;5055172;28;19921;-78
2022/09/26 15:39:48;;;;;;;;;;;;;;;;;;5055443;28;20369;-77
2022/09/26 15:44:57;;;;;;;;;;;;;;;;;;5055251;28;19923;-78
2022/09/26 15:47:26;;;;;;;;;;;;;;;;;;5037408;28;19917;-78
2022/09/26 15:50:10;;;;;;;;;;;;;;;;;;5055093;28;20257;-78
2022/09/26 15:52:41;;;;;;;;;;;;;;;;;;5054778;28;19917;-78
2022/09/26 15:55:08;;;;;;;;;;;;;;;;;;5053518;28;19947;-77
2022/09/26 15:57:33;;;;;;;;;;;;;;;;;;5039970;28;19921;-78
2022/09/26 15:59:59;;;;;;;;;;;;;;;;;;5054062;28;19923;-79
2022/09/26 16:02:27;;;;;;;;;;;;;;;;;;5036347;28;19999;-78
2022/09/26 16:04:53;;;;;;;;;;;;;;;;;;5055179;28;20534;-78
2022/09/26 16:07:20;;;;;;;;;;;;;;;;;;5054714;28;19986;-79
2022/09/26 16:09:46;;;;;;;;;;;;;;;;;;5053907;28;20302;-77
2022/09/26 16:12:14;;;;;;;;;;;;;;;;;;5053865;28;19917;-78
2022/09/26 16:14:53;;;;;;;;;;;;;;;;;;5055529;28;19917;-77
2022/09/26 16:17:25;;;;;;;;;;;;;;;;;;5054410;28;19917;-78
2022/09/26 16:19:54;;;;;;;;;;;;;;;;;;5052364;28;19924;-79
2022/09/26 16:22:35;;;;;;;;;;;;;;;;;;5053318;28;19917;-79
2022/09/26 16:25:16;;;;;;;;;;;;;;;;;;5053199;28;19917;-80
2022/09/26 16:27:41;;;;;;;;;;;;;;;;;;5053066;28;20008;-79
2022/09/26 16:30:28;;;;;;;;;;;;;;;;;;5052035;28;20007;-80
2022/09/26 16:32:55;;;;;;;;;;;;;;;;;;5054144;28;20403;-79
2022/09/26 16:35:26;;;;;;;;;;;;;;;;;;5052591;28;19917;-80
2022/09/26 16:38:01;;;;;;;;;;;;;;;;;;5051620;28;19932;-80
2022/09/26 16:40:26;;;;;;;;;;;;;;;;;;5051830;28;19916;-80
2022/09/26 16:42:53;;;;;;;;;;;;;;;;;;5053138;28;19917;-80
2022/09/26 16:45:18;;;;;;;;;;;;;;;;;;5052896;28;19916;-80
2022/09/26 16:47:44;;;;;;;;;;;;;;;;;;5051683;28;19917;-79
2022/09/26 16:50:15;;;;;;;;;;;;;;;;;;5034751;28;19923;-80
2022/09/26 16:52:41;;;;;;;;;;;;;;;;;;5053650;28;19940;-79
2022/09/26 16:55:07;;;;;;;;;;;;;;;;;;5054647;28;19995;-80
2022/09/26 16:57:33;;;;;;;;;;;;;;;;;;5058682;28;20354;-80
2022/09/26 17:02:58;;;;;;;;;;;;;;;;;;5074176;28;20399;-80
2022/09/26 17:05:24;;;;;;;;;;;;;;;;;;5074599;28;19921;-80
2022/09/26 17:07:49;;;;;;;;;;;;;;;;;;5074303;28;19916;-80
2022/09/26 17:10:15;;;;;;;;;;;;;;;;;;5075079;28;19966;-79
2022/09/26 17:12:40;;;;;;;;;;;;;;;;;;5060542;28;19916;-80
2022/09/26 17:15:13;;;;;;;;;;;;;;;;;;5078206;28;20225;-80
2022/09/26 17:17:39;;;;;;;;;;;;;;;;;;5044525;28;19916;-80
2022/09/26 17:20:04;;;;;;;;;;;;;;;;;;5078403;28;19944;-80
2022/09/26 17:22:30;;;;;;;;;;;;;;;;;;5078148;28;19917;-80
2022/09/26 17:24:56;;;;;;;;;;;;;;;;;;5077205;28;19917;-80
2022/09/26 17:27:26;;;;;;;;;;;;;;;;;;5060209;28;19916;-80
2022/09/26 17:29:51;;;;;;;;;;;;;;;;;;5077880;28;19916;-79
2022/09/26 17:32:19;;;;;;;;;;;;;;;;;;5060102;28;19916;-79